sensor_id;sensor_type;location;lat;lon;timestamp;P1;P2;P0
77692;PMS5003;66984;47.404;18.836;2024-03-17T00:00:33;0.00;0.00;0.00
77692;PMS5003;66984;47.404;18.836;2024-03-17T00:01:35;0.00;0.00;0.00
77692;PMS5003;66984;47.404;18.836;2024-03-17T00:02:36;0.00;0.00;0.00
77692;PMS5003;66984;47.404;18.836;2024-03-17T00:03:37;0.00;0.00;0.00
77692;PMS5003;66984;47.404;18.836;2024-03-17T00:04:38;1.00;0.25;0.00
77692;PMS5003;66984;47.404;18.836;2024-03-17T00:05:39;0.00;0.00;0.00
77692;PMS5003;66984;47.404;18.836;2024-03-17T00:06:39;0.00;0.00;0.00
77692;PMS5003;66984;47.404;18.836;2024-03-17T00:07:40;0.00;0.00;0.00
77692;PMS5003;66984;47.404;18.836;2024-03-17T00:08:41;0.00;0.00;0.00
77692;PMS5003;66984;47.404;18.836;2024-03-17T00:09:42;0.00;0.00;0.00
77692;PMS5003;66984;47.404;18.836;2024-03-17T00:10:43;0.00;0.00;0.00
77692;PMS5003;66984;47.404;18.836;2024-03-17T00:11:44;0.00;0.00;0.00
77692;PMS5003;66984;47.404;18.836;2024-03-17T00:12:45;0.00;0.00;0.00
77692;PMS5003;66984;47.404;18.836;2024-03-17T00:13:46;0.00;0.00;0.00
77692;PMS5003;66984;47.404;18.836;2024-03-17T00:14:47;0.00;0.00;0.00
77692;PMS5003;66984;47.404;18.836;2024-03-17T00:15:48;1.00;1.00;0.00
77692;PMS5003;66984;47.404;18.836;2024-03-17T00:16:49;1.00;1.00;0.00
77692;PMS5003;66984;47.404;18.836;2024-03-17T00:17:50;0.00;0.00;0.00
77692;PMS5003;66984;47.404;18.836;2024-03-17T00:18:50;0.00;0.00;0.00
77692;PMS5003;66984;47.404;18.836;2024-03-17T00:19:51;0.00;0.00;0.00
77692;PMS5003;66984;47.404;18.836;2024-03-17T00:20:52;0.00;0.00;0.00
77692;PMS5003;66984;47.404;18.836;2024-03-17T00:21:54;0.00;0.00;0.00
77692;PMS5003;66984;47.404;18.836;2024-03-17T00:22:56;0.00;0.00;0.00
77692;PMS5003;66984;47.404;18.836;2024-03-17T00:23:57;0.00;0.00;0.00
77692;PMS5003;66984;47.404;18.836;2024-03-17T00:24:58;0.00;0.00;0.00
77692;PMS5003;66984;47.404;18.836;2024-03-17T00:25:58;0.00;0.00;0.00
77692;PMS5003;66984;47.404;18.836;2024-03-17T00:26:59;0.00;0.00;0.00
77692;PMS5003;66984;47.404;18.836;2024-03-17T00:28:00;0.00;0.00;0.00
77692;PMS5003;66984;47.404;18.836;2024-03-17T00:29:04;0.00;0.00;0.00
77692;PMS5003;66984;47.404;18.836;2024-03-17T00:30:05;0.00;0.00;0.00
77692;PMS5003;66984;47.404;18.836;2024-03-17T00:31:11;0.00;0.00;0.00
77692;PMS5003;66984;47.404;18.836;2024-03-17T00:32:11;0.00;0.00;0.00
77692;PMS5003;66984;47.404;18.836;2024-03-17T00:33:12;0.33;0.00;0.00
77692;PMS5003;66984;47.404;18.836;2024-03-17T00:34:14;0.00;0.00;0.00
77692;PMS5003;66984;47.404;18.836;2024-03-17T00:35:15;0.00;0.00;0.00
77692;PMS5003;66984;47.404;18.836;2024-03-17T00:36:21;0.00;0.00;0.00
77692;PMS5003;66984;47.404;18.836;2024-03-17T00:37:22;0.00;0.00;0.00
77692;PMS5003;66984;47.404;18.836;2024-03-17T00:38:23;0.00;0.00;0.00
77692;PMS5003;66984;47.404;18.836;2024-03-17T00:39:24;0.00;0.00;0.00
77692;PMS5003;66984;47.404;18.836;2024-03-17T00:40:25;0.00;0.00;0.00
77692;PMS5003;66984;47.404;18.836;2024-03-17T00:41:25;0.00;0.00;0.00
77692;PMS5003;66984;47.404;18.836;2024-03-17T00:42:26;0.00;0.00;0.00
77692;PMS5003;66984;47.404;18.836;2024-03-17T00:43:27;0.00;0.00;0.00
77692;PMS5003;66984;47.404;18.836;2024-03-17T00:44:28;2.00;1.75;0.00
77692;PMS5003;66984;47.404;18.836;2024-03-17T00:45:29;2.00;2.00;0.00
77692;PMS5003;66984;47.404;18.836;2024-03-17T00:46:29;2.00;2.00;0.00
77692;PMS5003;66984;47.404;18.836;2024-03-17T00:47:30;1.00;1.00;0.00
77692;PMS5003;66984;47.404;18.836;2024-03-17T00:48:31;1.00;0.00;0.00
77692;PMS5003;66984;47.404;18.836;2024-03-17T00:49:32;1.75;1.75;0.00
77692;PMS5003;66984;47.404;18.836;2024-03-17T00:50:32;0.00;0.00;0.00
77692;PMS5003;66984;47.404;18.836;2024-03-17T00:51:33;0.00;0.00;0.00
77692;PMS5003;66984;47.404;18.836;2024-03-17T00:52:34;0.00;0.00;0.00
77692;PMS5003;66984;47.404;18.836;2024-03-17T00:53:35;0.00;0.00;0.00
77692;PMS5003;66984;47.404;18.836;2024-03-17T00:54:36;1.00;0.00;0.00
77692;PMS5003;66984;47.404;18.836;2024-03-17T00:55:36;1.00;1.00;0.00
77692;PMS5003;66984;47.404;18.836;2024-03-17T00:56:37;1.00;1.00;0.00
77692;PMS5003;66984;47.404;18.836;2024-03-17T00:57:38;0.00;0.00;0.00
77692;PMS5003;66984;47.404;18.836;2024-03-17T00:58:39;0.00;0.00;0.00
77692;PMS5003;66984;47.404;18.836;2024-03-17T00:59:40;1.00;1.00;0.00
77692;PMS5003;66984;47.404;18.836;2024-03-17T01:00:40;1.00;0.00;0.00
77692;PMS5003;66984;47.404;18.836;2024-03-17T01:01:41;2.00;1.00;0.00
77692;PMS5003;66984;47.404;18.836;2024-03-17T01:02:44;1.00;1.00;0.00
77692;PMS5003;66984;47.404;18.836;2024-03-17T01:03:45;0.00;0.00;0.00
77692;PMS5003;66984;47.404;18.836;2024-03-17T01:04:46;0.00;0.00;0.00
77692;PMS5003;66984;47.404;18.836;2024-03-17T01:05:47;0.00;0.00;0.00
77692;PMS5003;66984;47.404;18.836;2024-03-17T01:06:50;0.00;0.00;0.00
77692;PMS5003;66984;47.404;18.836;2024-03-17T01:07:52;0.50;0.00;0.00
77692;PMS5003;66984;47.404;18.836;2024-03-17T01:08:53;1.00;0.00;0.00
77692;PMS5003;66984;47.404;18.836;2024-03-17T01:09:54;2.00;1.00;0.00
77692;PMS5003;66984;47.404;18.836;2024-03-17T01:10:55;0.00;0.00;0.00
77692;PMS5003;66984;47.404;18.836;2024-03-17T01:11:56;0.00;0.00;0.00
77692;PMS5003;66984;47.404;18.836;2024-03-17T01:12:56;0.00;0.00;0.00
77692;PMS5003;66984;47.404;18.836;2024-03-17T01:13:57;1.00;0.00;0.00
77692;PMS5003;66984;47.404;18.836;2024-03-17T01:14:58;2.00;1.00;0.00
77692;PMS5003;66984;47.404;18.836;2024-03-17T01:15:59;1.75;1.00;0.00
77692;PMS5003;66984;47.404;18.836;2024-03-17T01:17:00;1.00;1.00;0.00
77692;PMS5003;66984;47.404;18.836;2024-03-17T01:18:01;0.00;0.00;0.00
77692;PMS5003;66984;47.404;18.836;2024-03-17T01:19:02;1.00;1.00;0.00
77692;PMS5003;66984;47.404;18.836;2024-03-17T01:20:03;0.33;0.33;0.00
77692;PMS5003;66984;47.404;18.836;2024-03-17T01:21:05;3.00;1.00;0.00
77692;PMS5003;66984;47.404;18.836;2024-03-17T01:22:06;2.50;0.50;0.00
77692;PMS5003;66984;47.404;18.836;2024-03-17T01:23:07;2.00;1.00;0.00
77692;PMS5003;66984;47.404;18.836;2024-03-17T01:24:08;2.00;2.00;0.00
77692;PMS5003;66984;47.404;18.836;2024-03-17T01:25:09;1.50;1.00;0.00
77692;PMS5003;66984;47.404;18.836;2024-03-17T01:26:09;0.75;0.75;0.00
77692;PMS5003;66984;47.404;18.836;2024-03-17T01:27:11;1.00;1.00;0.00
77692;PMS5003;66984;47.404;18.836;2024-03-17T01:28:14;1.00;1.00;0.00
77692;PMS5003;66984;47.404;18.836;2024-03-17T01:29:15;1.00;1.00;0.00
77692;PMS5003;66984;47.404;18.836;2024-03-17T01:30:16;2.00;2.00;0.00
77692;PMS5003;66984;47.404;18.836;2024-03-17T01:31:17;1.00;1.00;0.00
77692;PMS5003;66984;47.404;18.836;2024-03-17T01:32:17;2.00;2.00;0.00
77692;PMS5003;66984;47.404;18.836;2024-03-17T01:33:20;2.00;2.00;0.00
77692;PMS5003;66984;47.404;18.836;2024-03-17T01:34:21;2.00;2.00;0.00
77692;PMS5003;66984;47.404;18.836;2024-03-17T01:35:22;0.00;0.00;0.00
77692;PMS5003;66984;47.404;18.836;2024-03-17T01:36:23;0.00;0.00;0.00
77692;PMS5003;66984;47.404;18.836;2024-03-17T01:37:24;0.00;0.00;0.00
77692;PMS5003;66984;47.404;18.836;2024-03-17T01:38:25;0.00;0.00;0.00
77692;PMS5003;66984;47.404;18.836;2024-03-17T01:39:25;1.00;1.00;0.00
77692;PMS5003;66984;47.404;18.836;2024-03-17T01:40:26;1.50;1.00;0.00
77692;PMS5003;66984;47.404;18.836;2024-03-17T01:41:27;1.00;0.00;0.00
77692;PMS5003;66984;47.404;18.836;2024-03-17T01:42:28;2.00;1.00;0.00
77692;PMS5003;66984;47.404;18.836;2024-03-17T01:43:29;1.00;0.00;0.00
77692;PMS5003;66984;47.404;18.836;2024-03-17T01:44:30;1.75;0.75;0.00
77692;PMS5003;66984;47.404;18.836;2024-03-17T01:45:32;1.00;1.00;0.00
77692;PMS5003;66984;47.404;18.836;2024-03-17T01:46:33;1.00;0.00;0.00
77692;PMS5003;66984;47.404;18.836;2024-03-17T01:47:34;2.25;1.50;0.00
77692;PMS5003;66984;47.404;18.836;2024-03-17T01:48:35;3.00;1.00;0.00
77692;PMS5003;66984;47.404;18.836;2024-03-17T01:49:36;2.00;2.00;0.00
77692;PMS5003;66984;47.404;18.836;2024-03-17T01:50:37;2.00;1.75;0.00
77692;PMS5003;66984;47.404;18.836;2024-03-17T01:51:38;2.00;1.00;0.00
77692;PMS5003;66984;47.404;18.836;2024-03-17T01:52:39;2.00;2.00;0.00
77692;PMS5003;66984;47.404;18.836;2024-03-17T01:53:40;0.00;0.00;0.00
77692;PMS5003;66984;47.404;18.836;2024-03-17T01:54:43;2.00;1.00;0.00
77692;PMS5003;66984;47.404;18.836;2024-03-17T01:55:44;1.00;1.00;0.00
77692;PMS5003;66984;47.404;18.836;2024-03-17T01:56:47;3.25;2.00;0.00
77692;PMS5003;66984;47.404;18.836;2024-03-17T01:57:51;1.75;0.50;0.00
77692;PMS5003;66984;47.404;18.836;2024-03-17T01:58:52;2.00;1.00;0.00
77692;PMS5003;66984;47.404;18.836;2024-03-17T01:59:53;2.00;1.00;0.00
77692;PMS5003;66984;47.404;18.836;2024-03-17T02:00:55;2.00;2.00;0.00
77692;PMS5003;66984;47.404;18.836;2024-03-17T02:01:56;2.00;2.00;0.00
77692;PMS5003;66984;47.404;18.836;2024-03-17T02:02:57;3.00;2.75;0.00
77692;PMS5003;66984;47.404;18.836;2024-03-17T02:03:58;3.67;3.00;0.00
77692;PMS5003;66984;47.404;18.836;2024-03-17T02:04:59;2.00;2.00;0.00
77692;PMS5003;66984;47.404;18.836;2024-03-17T02:06:01;2.00;1.00;0.00
77692;PMS5003;66984;47.404;18.836;2024-03-17T02:07:01;3.00;3.00;0.00
77692;PMS5003;66984;47.404;18.836;2024-03-17T02:08:03;4.00;3.00;0.00
77692;PMS5003;66984;47.404;18.836;2024-03-17T02:09:05;3.25;3.25;0.00
77692;PMS5003;66984;47.404;18.836;2024-03-17T02:10:07;2.50;2.50;0.00
77692;PMS5003;66984;47.404;18.836;2024-03-17T02:11:10;3.00;3.00;0.00
77692;PMS5003;66984;47.404;18.836;2024-03-17T02:12:25;3.00;3.00;0.00
77692;PMS5003;66984;47.404;18.836;2024-03-17T02:13:26;2.00;1.00;0.00
77692;PMS5003;66984;47.404;18.836;2024-03-17T02:14:26;4.00;3.00;0.00
77692;PMS5003;66984;47.404;18.836;2024-03-17T02:15:27;2.00;2.00;0.00
77692;PMS5003;66984;47.404;18.836;2024-03-17T02:16:28;3.00;3.00;0.00
77692;PMS5003;66984;47.404;18.836;2024-03-17T02:17:29;3.00;3.00;0.00
77692;PMS5003;66984;47.404;18.836;2024-03-17T02:18:29;2.00;2.00;0.00
77692;PMS5003;66984;47.404;18.836;2024-03-17T02:19:30;2.00;2.00;0.00
77692;PMS5003;66984;47.404;18.836;2024-03-17T02:20:31;3.00;3.00;0.00
77692;PMS5003;66984;47.404;18.836;2024-03-17T02:21:50;4.00;4.00;0.00
77692;PMS5003;66984;47.404;18.836;2024-03-17T02:22:51;2.00;1.00;0.00
77692;PMS5003;66984;47.404;18.836;2024-03-17T02:23:52;4.00;4.00;0.00
77692;PMS5003;66984;47.404;18.836;2024-03-17T02:24:53;3.75;2.75;0.00
77692;PMS5003;66984;47.404;18.836;2024-03-17T02:25:54;3.00;2.00;0.00
77692;PMS5003;66984;47.404;18.836;2024-03-17T02:26:54;2.75;2.00;0.00
77692;PMS5003;66984;47.404;18.836;2024-03-17T02:27:55;2.00;2.00;0.00
77692;PMS5003;66984;47.404;18.836;2024-03-17T02:28:56;3.33;3.33;0.00
77692;PMS5003;66984;47.404;18.836;2024-03-17T02:29:57;3.33;3.00;0.00
77692;PMS5003;66984;47.404;18.836;2024-03-17T02:30:57;3.00;3.00;0.00
77692;PMS5003;66984;47.404;18.836;2024-03-17T02:31:58;3.00;3.00;0.00
77692;PMS5003;66984;47.404;18.836;2024-03-17T02:32:59;4.00;4.00;0.00
77692;PMS5003;66984;47.404;18.836;2024-03-17T02:33:59;5.33;5.00;0.00
77692;PMS5003;66984;47.404;18.836;2024-03-17T02:35:00;2.00;2.00;0.00
77692;PMS5003;66984;47.404;18.836;2024-03-17T02:36:02;4.75;4.75;0.00
77692;PMS5003;66984;47.404;18.836;2024-03-17T02:37:04;3.00;3.00;0.00
77692;PMS5003;66984;47.404;18.836;2024-03-17T02:38:07;3.50;2.00;0.00
77692;PMS5003;66984;47.404;18.836;2024-03-17T02:39:12;2.00;2.00;0.00
77692;PMS5003;66984;47.404;18.836;2024-03-17T02:40:34;3.00;3.00;0.00
77692;PMS5003;66984;47.404;18.836;2024-03-17T02:41:35;3.00;3.00;0.00
77692;PMS5003;66984;47.404;18.836;2024-03-17T02:42:36;3.00;3.00;0.00
77692;PMS5003;66984;47.404;18.836;2024-03-17T02:43:38;2.00;2.00;0.00
77692;PMS5003;66984;47.404;18.836;2024-03-17T02:44:39;3.00;2.00;0.00
77692;PMS5003;66984;47.404;18.836;2024-03-17T02:45:42;4.50;4.00;0.00
77692;PMS5003;66984;47.404;18.836;2024-03-17T02:46:43;3.75;3.50;0.00
77692;PMS5003;66984;47.404;18.836;2024-03-17T02:47:44;2.00;2.00;0.00
77692;PMS5003;66984;47.404;18.836;2024-03-17T02:48:46;4.00;3.00;0.00
77692;PMS5003;66984;47.404;18.836;2024-03-17T02:49:48;3.00;3.00;0.00
77692;PMS5003;66984;47.404;18.836;2024-03-17T02:50:50;3.00;3.00;0.00
77692;PMS5003;66984;47.404;18.836;2024-03-17T02:51:51;3.00;2.00;0.00
77692;PMS5003;66984;47.404;18.836;2024-03-17T02:52:52;2.33;2.33;0.00
77692;PMS5003;66984;47.404;18.836;2024-03-17T02:53:53;2.33;2.33;0.00
77692;PMS5003;66984;47.404;18.836;2024-03-17T02:54:53;5.00;4.00;1.00
77692;PMS5003;66984;47.404;18.836;2024-03-17T02:55:54;4.00;4.00;1.75
77692;PMS5003;66984;47.404;18.836;2024-03-17T02:56:55;2.00;2.00;0.00
77692;PMS5003;66984;47.404;18.836;2024-03-17T02:57:55;3.00;3.00;0.00
77692;PMS5003;66984;47.404;18.836;2024-03-17T02:58:56;1.00;1.00;0.00
77692;PMS5003;66984;47.404;18.836;2024-03-17T02:59:57;2.00;2.00;0.00
77692;PMS5003;66984;47.404;18.836;2024-03-17T03:00:59;2.00;2.00;0.00
77692;PMS5003;66984;47.404;18.836;2024-03-17T03:02:00;3.00;3.00;0.00
77692;PMS5003;66984;47.404;18.836;2024-03-17T03:03:01;2.00;1.00;0.00
77692;PMS5003;66984;47.404;18.836;2024-03-17T03:04:02;2.00;2.00;0.00
77692;PMS5003;66984;47.404;18.836;2024-03-17T03:05:02;2.00;2.00;0.00
77692;PMS5003;66984;47.404;18.836;2024-03-17T03:06:04;2.00;2.00;0.00
77692;PMS5003;66984;47.404;18.836;2024-03-17T03:07:09;2.00;2.00;1.00
77692;PMS5003;66984;47.404;18.836;2024-03-17T03:08:10;2.00;2.00;0.00
77692;PMS5003;66984;47.404;18.836;2024-03-17T03:09:10;1.00;1.00;0.00
77692;PMS5003;66984;47.404;18.836;2024-03-17T03:10:15;2.00;2.00;0.00
77692;PMS5003;66984;47.404;18.836;2024-03-17T03:11:16;1.00;1.00;0.00
77692;PMS5003;66984;47.404;18.836;2024-03-17T03:12:17;2.00;2.00;0.00
77692;PMS5003;66984;47.404;18.836;2024-03-17T03:13:18;2.00;2.00;0.00
77692;PMS5003;66984;47.404;18.836;2024-03-17T03:14:19;2.25;1.00;0.00
77692;PMS5003;66984;47.404;18.836;2024-03-17T03:15:20;2.00;2.00;0.00
77692;PMS5003;66984;47.404;18.836;2024-03-17T03:16:21;1.00;1.00;0.00
77692;PMS5003;66984;47.404;18.836;2024-03-17T03:17:22;1.75;1.75;0.00
77692;PMS5003;66984;47.404;18.836;2024-03-17T03:18:24;2.00;2.00;0.00
77692;PMS5003;66984;47.404;18.836;2024-03-17T03:19:28;2.67;2.67;0.00
77692;PMS5003;66984;47.404;18.836;2024-03-17T03:20:28;1.00;0.00;0.00
77692;PMS5003;66984;47.404;18.836;2024-03-17T03:21:29;0.75;0.50;0.00
77692;PMS5003;66984;47.404;18.836;2024-03-17T03:22:30;1.00;0.00;0.00
77692;PMS5003;66984;47.404;18.836;2024-03-17T03:23:31;1.00;0.00;0.00
77692;PMS5003;66984;47.404;18.836;2024-03-17T03:24:32;0.00;0.00;0.00
77692;PMS5003;66984;47.404;18.836;2024-03-17T03:25:33;0.00;0.00;0.00
77692;PMS5003;66984;47.404;18.836;2024-03-17T03:26:35;0.25;0.00;0.00
77692;PMS5003;66984;47.404;18.836;2024-03-17T03:27:35;0.00;0.00;0.00
77692;PMS5003;66984;47.404;18.836;2024-03-17T03:28:36;0.00;0.00;0.00
77692;PMS5003;66984;47.404;18.836;2024-03-17T03:29:37;0.00;0.00;0.00
77692;PMS5003;66984;47.404;18.836;2024-03-17T03:30:38;0.50;0.00;0.00
77692;PMS5003;66984;47.404;18.836;2024-03-17T03:31:39;1.00;0.00;0.00
77692;PMS5003;66984;47.404;18.836;2024-03-17T03:32:40;1.00;0.00;0.00
77692;PMS5003;66984;47.404;18.836;2024-03-17T03:33:41;2.00;0.00;0.00
77692;PMS5003;66984;47.404;18.836;2024-03-17T03:34:42;1.00;1.00;0.00
77692;PMS5003;66984;47.404;18.836;2024-03-17T03:35:43;3.25;3.25;0.00
77692;PMS5003;66984;47.404;18.836;2024-03-17T03:36:47;2.00;2.00;0.00
77692;PMS5003;66984;47.404;18.836;2024-03-17T03:37:48;1.00;1.00;0.00
77692;PMS5003;66984;47.404;18.836;2024-03-17T03:38:50;1.00;1.00;0.00
77692;PMS5003;66984;47.404;18.836;2024-03-17T03:39:51;1.00;1.00;0.00
77692;PMS5003;66984;47.404;18.836;2024-03-17T03:40:51;1.33;1.00;0.00
77692;PMS5003;66984;47.404;18.836;2024-03-17T03:41:53;2.50;1.50;0.00
77692;PMS5003;66984;47.404;18.836;2024-03-17T03:42:55;2.00;0.50;0.00
77692;PMS5003;66984;47.404;18.836;2024-03-17T03:43:56;2.00;2.00;0.00
77692;PMS5003;66984;47.404;18.836;2024-03-17T03:44:57;0.00;0.00;0.00
77692;PMS5003;66984;47.404;18.836;2024-03-17T03:45:59;1.25;1.00;0.00
77692;PMS5003;66984;47.404;18.836;2024-03-17T03:47:00;4.00;3.00;0.00
77692;PMS5003;66984;47.404;18.836;2024-03-17T03:48:01;1.00;1.00;0.00
77692;PMS5003;66984;47.404;18.836;2024-03-17T03:49:05;1.00;1.00;0.00
77692;PMS5003;66984;47.404;18.836;2024-03-17T03:50:07;3.00;3.00;0.00
77692;PMS5003;66984;47.404;18.836;2024-03-17T03:51:09;2.00;2.00;0.00
77692;PMS5003;66984;47.404;18.836;2024-03-17T03:52:10;2.00;2.00;0.00
77692;PMS5003;66984;47.404;18.836;2024-03-17T03:53:11;2.00;2.00;0.00
77692;PMS5003;66984;47.404;18.836;2024-03-17T03:54:12;1.00;1.00;0.00
77692;PMS5003;66984;47.404;18.836;2024-03-17T03:55:15;1.00;1.00;0.00
77692;PMS5003;66984;47.404;18.836;2024-03-17T03:56:17;2.00;2.00;0.00
77692;PMS5003;66984;47.404;18.836;2024-03-17T03:57:18;2.00;2.00;0.00
77692;PMS5003;66984;47.404;18.836;2024-03-17T03:58:19;3.00;3.00;0.00
77692;PMS5003;66984;47.404;18.836;2024-03-17T03:59:21;3.00;2.00;0.00
77692;PMS5003;66984;47.404;18.836;2024-03-17T04:00:22;2.00;1.50;0.00
77692;PMS5003;66984;47.404;18.836;2024-03-17T04:01:24;2.00;2.00;0.00
77692;PMS5003;66984;47.404;18.836;2024-03-17T04:02:24;1.00;1.00;0.00
77692;PMS5003;66984;47.404;18.836;2024-03-17T04:03:31;1.00;1.00;0.00
77692;PMS5003;66984;47.404;18.836;2024-03-17T04:04:35;2.50;2.50;0.00
77692;PMS5003;66984;47.404;18.836;2024-03-17T04:05:36;2.00;2.00;0.00
77692;PMS5003;66984;47.404;18.836;2024-03-17T04:06:37;3.00;3.00;0.00
77692;PMS5003;66984;47.404;18.836;2024-03-17T04:07:37;3.25;2.25;0.00
77692;PMS5003;66984;47.404;18.836;2024-03-17T04:08:39;1.00;1.00;0.00
77692;PMS5003;66984;47.404;18.836;2024-03-17T04:09:40;1.00;1.00;0.00
77692;PMS5003;66984;47.404;18.836;2024-03-17T04:10:43;0.67;0.00;0.00
77692;PMS5003;66984;47.404;18.836;2024-03-17T04:11:44;3.00;2.50;0.00
77692;PMS5003;66984;47.404;18.836;2024-03-17T04:12:45;2.00;2.00;0.00
77692;PMS5003;66984;47.404;18.836;2024-03-17T04:13:45;3.00;2.00;0.00
77692;PMS5003;66984;47.404;18.836;2024-03-17T04:14:47;2.00;2.00;1.00
77692;PMS5003;66984;47.404;18.836;2024-03-17T04:15:52;2.00;2.00;0.00
77692;PMS5003;66984;47.404;18.836;2024-03-17T04:16:56;1.00;1.00;0.00
77692;PMS5003;66984;47.404;18.836;2024-03-17T04:17:58;3.00;3.00;0.00
77692;PMS5003;66984;47.404;18.836;2024-03-17T04:18:59;2.00;2.00;0.00
77692;PMS5003;66984;47.404;18.836;2024-03-17T04:20:00;3.00;3.00;0.00
77692;PMS5003;66984;47.404;18.836;2024-03-17T04:21:01;3.00;3.00;0.00
77692;PMS5003;66984;47.404;18.836;2024-03-17T04:22:04;2.00;2.00;0.00
77692;PMS5003;66984;47.404;18.836;2024-03-17T04:23:04;3.75;3.00;1.00
77692;PMS5003;66984;47.404;18.836;2024-03-17T04:24:06;4.00;4.00;1.00
77692;PMS5003;66984;47.404;18.836;2024-03-17T04:25:07;2.00;2.00;0.00
77692;PMS5003;66984;47.404;18.836;2024-03-17T04:26:09;3.00;3.00;0.25
77692;PMS5003;66984;47.404;18.836;2024-03-17T04:27:10;2.00;2.00;0.00
77692;PMS5003;66984;47.404;18.836;2024-03-17T04:28:11;2.50;2.50;0.00
77692;PMS5003;66984;47.404;18.836;2024-03-17T04:29:12;1.00;1.00;0.00
77692;PMS5003;66984;47.404;18.836;2024-03-17T04:30:13;2.00;2.00;0.00
77692;PMS5003;66984;47.404;18.836;2024-03-17T04:31:14;3.00;3.00;0.00
77692;PMS5003;66984;47.404;18.836;2024-03-17T04:32:15;2.00;2.00;0.00
77692;PMS5003;66984;47.404;18.836;2024-03-17T04:33:16;3.00;3.00;0.00
77692;PMS5003;66984;47.404;18.836;2024-03-17T04:34:17;3.00;3.00;0.00
77692;PMS5003;66984;47.404;18.836;2024-03-17T04:35:18;2.00;2.00;0.00
77692;PMS5003;66984;47.404;18.836;2024-03-17T04:36:18;1.00;1.00;0.00
77692;PMS5003;66984;47.404;18.836;2024-03-17T04:37:19;2.00;2.00;0.00
77692;PMS5003;66984;47.404;18.836;2024-03-17T04:38:20;3.00;3.00;0.00
77692;PMS5003;66984;47.404;18.836;2024-03-17T04:39:21;2.00;2.00;0.00
77692;PMS5003;66984;47.404;18.836;2024-03-17T04:40:22;2.00;2.00;0.00
77692;PMS5003;66984;47.404;18.836;2024-03-17T04:41:23;3.00;3.00;0.00
77692;PMS5003;66984;47.404;18.836;2024-03-17T04:42:23;2.00;2.00;0.00
77692;PMS5003;66984;47.404;18.836;2024-03-17T04:43:24;1.00;1.00;0.00
77692;PMS5003;66984;47.404;18.836;2024-03-17T04:44:25;3.00;3.00;0.00
77692;PMS5003;66984;47.404;18.836;2024-03-17T04:45:26;2.75;2.75;0.00
77692;PMS5003;66984;47.404;18.836;2024-03-17T04:46:27;2.00;2.00;0.00
77692;PMS5003;66984;47.404;18.836;2024-03-17T04:47:28;4.00;2.00;0.00
77692;PMS5003;66984;47.404;18.836;2024-03-17T04:48:28;3.33;2.00;0.00
77692;PMS5003;66984;47.404;18.836;2024-03-17T04:49:29;2.00;2.00;0.00
77692;PMS5003;66984;47.404;18.836;2024-03-17T04:50:30;2.00;2.00;0.00
77692;PMS5003;66984;47.404;18.836;2024-03-17T04:51:32;2.50;0.75;0.00
77692;PMS5003;66984;47.404;18.836;2024-03-17T04:52:33;3.50;3.50;0.00
77692;PMS5003;66984;47.404;18.836;2024-03-17T04:53:34;4.00;4.00;0.00
77692;PMS5003;66984;47.404;18.836;2024-03-17T04:54:35;1.33;1.00;0.00
77692;PMS5003;66984;47.404;18.836;2024-03-17T04:55:35;2.50;2.50;0.00
77692;PMS5003;66984;47.404;18.836;2024-03-17T04:56:36;3.00;3.00;1.00
77692;PMS5003;66984;47.404;18.836;2024-03-17T04:57:37;3.00;3.00;0.00
77692;PMS5003;66984;47.404;18.836;2024-03-17T04:58:38;3.00;2.33;0.00
77692;PMS5003;66984;47.404;18.836;2024-03-17T04:59:39;2.25;2.25;0.00
77692;PMS5003;66984;47.404;18.836;2024-03-17T05:00:39;2.75;2.75;0.00
77692;PMS5003;66984;47.404;18.836;2024-03-17T05:01:40;3.00;3.00;0.00
77692;PMS5003;66984;47.404;18.836;2024-03-17T05:02:41;2.00;2.00;0.00
77692;PMS5003;66984;47.404;18.836;2024-03-17T05:03:41;2.67;2.00;0.00
77692;PMS5003;66984;47.404;18.836;2024-03-17T05:04:42;2.00;2.00;0.00
77692;PMS5003;66984;47.404;18.836;2024-03-17T05:05:43;2.00;2.00;0.00
77692;PMS5003;66984;47.404;18.836;2024-03-17T05:06:44;2.00;2.00;0.00
77692;PMS5003;66984;47.404;18.836;2024-03-17T05:07:46;3.00;2.50;0.00
77692;PMS5003;66984;47.404;18.836;2024-03-17T05:08:47;2.00;2.00;0.00
77692;PMS5003;66984;47.404;18.836;2024-03-17T05:09:48;2.33;2.33;0.00
77692;PMS5003;66984;47.404;18.836;2024-03-17T05:10:55;4.00;3.00;0.00
77692;PMS5003;66984;47.404;18.836;2024-03-17T05:12:05;0.75;0.75;0.00
77692;PMS5003;66984;47.404;18.836;2024-03-17T05:13:06;0.00;0.00;0.00
77692;PMS5003;66984;47.404;18.836;2024-03-17T05:14:07;0.00;0.00;0.00
77692;PMS5003;66984;47.404;18.836;2024-03-17T05:15:09;1.00;1.00;0.00
77692;PMS5003;66984;47.404;18.836;2024-03-17T05:16:10;1.00;1.00;0.00
77692;PMS5003;66984;47.404;18.836;2024-03-17T05:17:11;1.00;0.33;0.00
77692;PMS5003;66984;47.404;18.836;2024-03-17T05:18:12;2.25;1.25;0.00
77692;PMS5003;66984;47.404;18.836;2024-03-17T05:19:12;3.67;3.67;0.00
77692;PMS5003;66984;47.404;18.836;2024-03-17T05:20:13;2.00;2.00;0.00
77692;PMS5003;66984;47.404;18.836;2024-03-17T05:21:14;1.67;1.67;0.00
77692;PMS5003;66984;47.404;18.836;2024-03-17T05:22:14;2.67;2.67;0.00
77692;PMS5003;66984;47.404;18.836;2024-03-17T05:23:15;1.00;1.00;0.00
77692;PMS5003;66984;47.404;18.836;2024-03-17T05:24:16;2.75;1.75;0.00
77692;PMS5003;66984;47.404;18.836;2024-03-17T05:25:18;2.00;2.00;0.00
77692;PMS5003;66984;47.404;18.836;2024-03-17T05:26:18;1.33;1.33;0.00
77692;PMS5003;66984;47.404;18.836;2024-03-17T05:27:19;1.00;1.00;0.00
77692;PMS5003;66984;47.404;18.836;2024-03-17T05:28:20;1.00;1.00;0.00
77692;PMS5003;66984;47.404;18.836;2024-03-17T05:29:21;1.00;1.00;0.00
77692;PMS5003;66984;47.404;18.836;2024-03-17T05:30:22;0.75;0.75;0.00
77692;PMS5003;66984;47.404;18.836;2024-03-17T05:31:23;1.00;0.00;0.00
77692;PMS5003;66984;47.404;18.836;2024-03-17T05:32:24;2.00;1.50;0.00
77692;PMS5003;66984;47.404;18.836;2024-03-17T05:33:26;4.00;4.00;0.00
77692;PMS5003;66984;47.404;18.836;2024-03-17T05:34:27;3.00;2.00;0.00
77692;PMS5003;66984;47.404;18.836;2024-03-17T05:35:28;2.00;2.00;0.00
77692;PMS5003;66984;47.404;18.836;2024-03-17T05:36:29;4.00;3.00;0.00
77692;PMS5003;66984;47.404;18.836;2024-03-17T05:37:32;5.00;3.50;0.00
77692;PMS5003;66984;47.404;18.836;2024-03-17T05:38:33;5.00;5.00;0.00
77692;PMS5003;66984;47.404;18.836;2024-03-17T05:39:34;5.00;5.00;0.00
77692;PMS5003;66984;47.404;18.836;2024-03-17T05:40:35;5.00;5.00;0.00
77692;PMS5003;66984;47.404;18.836;2024-03-17T05:41:38;3.00;3.00;0.00
77692;PMS5003;66984;47.404;18.836;2024-03-17T05:42:41;5.00;5.00;1.00
77692;PMS5003;66984;47.404;18.836;2024-03-17T05:43:42;4.00;4.00;2.00
77692;PMS5003;66984;47.404;18.836;2024-03-17T05:44:43;4.00;4.00;1.50
77692;PMS5003;66984;47.404;18.836;2024-03-17T05:45:51;3.00;3.00;1.00
77692;PMS5003;66984;47.404;18.836;2024-03-17T05:46:55;4.25;4.25;0.75
77692;PMS5003;66984;47.404;18.836;2024-03-17T05:47:58;3.50;2.75;0.00
77692;PMS5003;66984;47.404;18.836;2024-03-17T05:48:58;2.67;2.33;0.00
77692;PMS5003;66984;47.404;18.836;2024-03-17T05:49:59;3.33;3.33;0.00
77692;PMS5003;66984;47.404;18.836;2024-03-17T05:51:03;2.00;2.00;0.00
77692;PMS5003;66984;47.404;18.836;2024-03-17T05:52:05;2.00;2.00;0.00
77692;PMS5003;66984;47.404;18.836;2024-03-17T05:53:07;3.00;3.00;0.75
77692;PMS5003;66984;47.404;18.836;2024-03-17T05:54:07;2.00;2.00;0.00